Time;durP1;ratioP1;P1;durP2;ratioP2;P2;SDS_P1;SDS_P2;PMS_P1;PMS_P2;Temp;Humidity;BMP_temperature;BMP_pressure;BME280_temperature;BME280_humidity;BME280_pressure;Samples;Min_cycle;Max_cycle;Signal;HPM_P1;HPM_P2
2022/05/23 00:01:27;;;;;;;;;;;;;;;;;;4915923;29;20362;-70
2022/05/23 00:03:53;;;;;;;;;;;;;;;;;;4915394;29;19941;-69
2022/05/23 00:06:19;;;;;;;;;;;;;;;;;;4915886;29;19919;-70
2022/05/23 00:08:45;;;;;;;;;;;;;;;;;;4915446;29;19977;-70
2022/05/23 00:11:10;;;;;;;;;;;;;;;;;;4915737;29;20389;-70
2022/05/23 00:13:36;;;;;;;;;;;;;;;;;;4915526;29;19914;-70
2022/05/23 00:16:02;;;;;;;;;;;;;;;;;;4915562;29;19915;-69
2022/05/23 00:18:28;;;;;;;;;;;;;;;;;;4915550;29;19915;-68
2022/05/23 00:20:54;;;;;;;;;;;;;;;;;;4915474;29;19923;-69
2022/05/23 00:23:22;;;;;;;;;;;;;;;;;;4915455;29;19983;-68
2022/05/23 00:25:47;;;;;;;;;;;;;;;;;;4915361;29;19915;-69
2022/05/23 00:28:13;;;;;;;;;;;;;;;;;;4913867;29;19971;-69
2022/05/23 00:30:39;;;;;;;;;;;;;;;;;;4914020;29;19922;-68
2022/05/23 00:35:49;;;;;;;;;;;;;;;;;;4914856;29;19930;-70
2022/05/23 00:38:15;;;;;;;;;;;;;;;;;;4913851;29;19934;-69
2022/05/23 00:40:40;;;;;;;;;;;;;;;;;;4913872;29;19919;-70
2022/05/23 00:43:15;;;;;;;;;;;;;;;;;;4913888;29;20346;-69
2022/05/23 00:45:41;;;;;;;;;;;;;;;;;;4914004;29;19915;-68
2022/05/23 00:48:06;;;;;;;;;;;;;;;;;;4914715;29;19922;-69
2022/05/23 00:50:32;;;;;;;;;;;;;;;;;;4913722;29;19949;-69
2022/05/23 00:52:58;;;;;;;;;;;;;;;;;;4913315;29;19915;-69
2022/05/23 00:55:23;;;;;;;;;;;;;;;;;;4913528;29;19915;-69
2022/05/23 00:57:49;;;;;;;;;;;;;;;;;;4911990;29;19922;-70
2022/05/23 01:00:15;;;;;;;;;;;;;;;;;;4914591;29;20044;-69
2022/05/23 01:02:42;;;;;;;;;;;;;;;;;;4913340;29;19915;-70
2022/05/23 01:05:08;;;;;;;;;;;;;;;;;;4913309;29;20017;-69
2022/05/23 01:07:33;;;;;;;;;;;;;;;;;;4914805;29;19918;-70
2022/05/23 01:09:59;;;;;;;;;;;;;;;;;;4913543;29;19915;-69
2022/05/23 01:12:24;;;;;;;;;;;;;;;;;;4913435;29;19915;-70
2022/05/23 01:14:50;;;;;;;;;;;;;;;;;;4913042;29;19950;-70
2022/05/23 01:17:16;;;;;;;;;;;;;;;;;;4914747;29;19926;-69
2022/05/23 01:19:41;;;;;;;;;;;;;;;;;;4913120;29;19958;-70
2022/05/23 01:22:07;;;;;;;;;;;;;;;;;;4914350;29;19918;-68
2022/05/23 01:24:35;;;;;;;;;;;;;;;;;;4913088;29;20389;-68
2022/05/23 01:27:01;;;;;;;;;;;;;;;;;;4913101;29;19922;-69
2022/05/23 01:29:32;;;;;;;;;;;;;;;;;;4913036;29;19914;-71
2022/05/23 01:32:06;;;;;;;;;;;;;;;;;;4912998;29;20460;-71
2022/05/23 01:34:34;;;;;;;;;;;;;;;;;;4912898;29;19915;-71
2022/05/23 01:37:05;;;;;;;;;;;;;;;;;;4912800;29;20018;-71
2022/05/23 01:39:45;;;;;;;;;;;;;;;;;;4912963;29;19922;-69
2022/05/23 01:42:11;;;;;;;;;;;;;;;;;;4913647;29;19922;-71
2022/05/23 01:44:36;;;;;;;;;;;;;;;;;;4913775;29;19921;-73
2022/05/23 01:47:16;;;;;;;;;;;;;;;;;;4913841;29;19962;-71
2022/05/23 01:49:59;;;;;;;;;;;;;;;;;;4913902;29;19970;-69
2022/05/23 01:52:39;;;;;;;;;;;;;;;;;;4912992;29;19915;-70
2022/05/23 01:55:15;;;;;;;;;;;;;;;;;;4912672;29;19958;-69
2022/05/23 01:57:55;;;;;;;;;;;;;;;;;;4912623;29;19915;-70
2022/05/23 02:03:05;;;;;;;;;;;;;;;;;;4912081;29;19915;-70
2022/05/23 02:05:30;;;;;;;;;;;;;;;;;;4912208;29;19914;-70
2022/05/23 02:07:56;;;;;;;;;;;;;;;;;;4913667;29;19939;-71
2022/05/23 02:10:22;;;;;;;;;;;;;;;;;;4912631;29;19915;-70
2022/05/23 02:12:47;;;;;;;;;;;;;;;;;;4912377;29;20389;-70
2022/05/23 02:15:17;;;;;;;;;;;;;;;;;;4912382;29;19911;-70
2022/05/23 02:18:15;;;;;;;;;;;;;;;;;;4906809;29;19915;-70
2022/05/23 02:20:41;;;;;;;;;;;;;;;;;;4912443;29;19923;-70
2022/05/23 02:23:07;;;;;;;;;;;;;;;;;;4912888;29;19915;-69
2022/05/23 02:25:32;;;;;;;;;;;;;;;;;;4913636;29;19970;-70
2022/05/23 02:28:04;;;;;;;;;;;;;;;;;;4913552;29;20017;-70
2022/05/23 02:30:40;;;;;;;;;;;;;;;;;;4912744;29;20382;-69
2022/05/23 02:33:15;;;;;;;;;;;;;;;;;;4909107;29;19922;-71
2022/05/23 02:35:40;;;;;;;;;;;;;;;;;;4893487;29;19923;-71
2022/05/23 02:38:06;;;;;;;;;;;;;;;;;;4893306;29;20394;-71
2022/05/23 02:40:32;;;;;;;;;;;;;;;;;;4893410;29;19934;-69
2022/05/23 02:42:58;;;;;;;;;;;;;;;;;;4904341;29;19923;-70
2022/05/23 02:45:23;;;;;;;;;;;;;;;;;;4896596;29;19915;-70
2022/05/23 02:47:49;;;;;;;;;;;;;;;;;;4912471;29;19954;-70
2022/05/23 02:50:15;;;;;;;;;;;;;;;;;;4911738;29;19915;-71
2022/05/23 02:52:44;;;;;;;;;;;;;;;;;;4912285;29;19922;-70
2022/05/23 02:55:16;;;;;;;;;;;;;;;;;;4911956;29;19915;-71
2022/05/23 02:57:42;;;;;;;;;;;;;;;;;;4912079;29;19915;-70
2022/05/23 03:00:14;;;;;;;;;;;;;;;;;;4913722;29;19923;-70
2022/05/23 03:05:27;;;;;;;;;;;;;;;;;;4916759;29;19917;-70
2022/05/23 03:07:53;;;;;;;;;;;;;;;;;;4916874;29;19915;-71
2022/05/23 03:10:19;;;;;;;;;;;;;;;;;;4916435;29;19922;-70
2022/05/23 03:12:45;;;;;;;;;;;;;;;;;;4915462;29;20141;-71
2022/05/23 03:15:11;;;;;;;;;;;;;;;;;;4915043;29;20045;-72
2022/05/23 03:17:37;;;;;;;;;;;;;;;;;;4915338;29;19991;-71
2022/05/23 03:20:02;;;;;;;;;;;;;;;;;;4916383;29;19966;-70
2022/05/23 03:27:57;;;;;;;;;;;;;;;;;;4914831;29;20376;-73
2022/05/23 03:30:29;;;;;;;;;;;;;;;;;;4915253;29;19926;-72
2022/05/23 03:32:56;;;;;;;;;;;;;;;;;;4915460;29;19915;-71
2022/05/23 03:35:22;;;;;;;;;;;;;;;;;;4914641;29;19915;-70
2022/05/23 03:37:48;;;;;;;;;;;;;;;;;;4915087;29;19915;-70
2022/05/23 03:40:14;;;;;;;;;;;;;;;;;;4883340;29;19923;-70
2022/05/23 03:42:45;;;;;;;;;;;;;;;;;;4899309;29;19915;-72
2022/05/23 03:45:11;;;;;;;;;;;;;;;;;;4914620;29;20006;-72
2022/05/23 03:47:41;;;;;;;;;;;;;;;;;;4916244;29;19951;-71
2022/05/23 03:50:12;;;;;;;;;;;;;;;;;;4899172;29;20171;-71
2022/05/23 03:52:38;;;;;;;;;;;;;;;;;;4899328;29;20198;-72
2022/05/23 03:55:05;;;;;;;;;;;;;;;;;;4914536;29;19915;-72
2022/05/23 03:57:30;;;;;;;;;;;;;;;;;;4914568;29;20393;-72
2022/05/23 03:59:57;;;;;;;;;;;;;;;;;;4930360;29;19927;-72
2022/05/23 04:02:23;;;;;;;;;;;;;;;;;;4916200;29;19965;-72
2022/05/23 04:04:49;;;;;;;;;;;;;;;;;;4899260;29;19915;-73
2022/05/23 04:07:33;;;;;;;;;;;;;;;;;;4916283;29;19922;-72
2022/05/23 04:10:10;;;;;;;;;;;;;;;;;;4914300;29;19927;-72
2022/05/23 04:12:36;;;;;;;;;;;;;;;;;;4916498;29;19942;-73
2022/05/23 04:15:02;;;;;;;;;;;;;;;;;;4915276;29;19922;-72
2022/05/23 04:17:29;;;;;;;;;;;;;;;;;;4899765;29;20459;-72
2022/05/23 04:19:55;;;;;;;;;;;;;;;;;;4914915;29;19962;-73
2022/05/23 04:22:23;;;;;;;;;;;;;;;;;;4898988;29;20448;-72
2022/05/23 04:25:01;;;;;;;;;;;;;;;;;;4914849;29;19998;-73
2022/05/23 04:27:28;;;;;;;;;;;;;;;;;;4899205;29;19958;-72
2022/05/23 04:29:54;;;;;;;;;;;;;;;;;;4914950;29;20011;-73
2022/05/23 04:35:36;;;;;;;;;;;;;;;;;;4913809;29;19922;-72
2022/05/23 04:38:02;;;;;;;;;;;;;;;;;;4912158;29;20402;-72
2022/05/23 04:40:31;;;;;;;;;;;;;;;;;;4913618;29;20394;-71
2022/05/23 04:43:00;;;;;;;;;;;;;;;;;;4914019;29;19922;-72
2022/05/23 04:45:26;;;;;;;;;;;;;;;;;;4915028;29;19915;-73
2022/05/23 04:50:59;;;;;;;;;;;;;;;;;;4914079;29;19915;-73
2022/05/23 04:53:32;;;;;;;;;;;;;;;;;;4899511;29;19954;-73
2022/05/23 04:56:12;;;;;;;;;;;;;;;;;;4913185;29;19958;-73
2022/05/23 04:58:37;;;;;;;;;;;;;;;;;;4913307;29;20085;-72
2022/05/23 05:01:03;;;;;;;;;;;;;;;;;;4898043;29;19926;-73
2022/05/23 05:03:29;;;;;;;;;;;;;;;;;;4897877;29;20003;-73
2022/05/23 05:05:55;;;;;;;;;;;;;;;;;;4898182;29;20412;-72
2022/05/23 05:08:21;;;;;;;;;;;;;;;;;;4916310;29;19972;-73
2022/05/23 05:10:50;;;;;;;;;;;;;;;;;;4897691;29;19922;-73
2022/05/23 05:13:16;;;;;;;;;;;;;;;;;;4916324;29;19915;-72
2022/05/23 05:15:41;;;;;;;;;;;;;;;;;;4916301;29;19922;-73
2022/05/23 05:18:17;;;;;;;;;;;;;;;;;;4915985;29;19946;-74
2022/05/23 05:20:50;;;;;;;;;;;;;;;;;;4915910;29;19923;-74
2022/05/23 05:23:50;;;;;;;;;;;;;;;;;;4907751;29;20013;-72
2022/05/23 05:26:26;;;;;;;;;;;;;;;;;;4914817;29;20402;-72
2022/05/23 05:28:52;;;;;;;;;;;;;;;;;;4914800;29;20024;-73
2022/05/23 05:31:17;;;;;;;;;;;;;;;;;;4916440;29;19925;-72
2022/05/23 05:33:43;;;;;;;;;;;;;;;;;;4916487;29;20313;-73
2022/05/23 05:36:09;;;;;;;;;;;;;;;;;;4909904;29;19922;-73
2022/05/23 05:38:34;;;;;;;;;;;;;;;;;;4918132;29;19970;-73
2022/05/23 05:41:03;;;;;;;;;;;;;;;;;;4935002;29;19922;-73
2022/05/23 05:43:28;;;;;;;;;;;;;;;;;;4918003;29;19921;-72
2022/05/23 05:45:58;;;;;;;;;;;;;;;;;;4918334;29;20222;-73
2022/05/23 05:48:40;;;;;;;;;;;;;;;;;;4934121;29;19930;-73
2022/05/23 05:51:06;;;;;;;;;;;;;;;;;;4916419;29;20384;-73
2022/05/23 05:53:33;;;;;;;;;;;;;;;;;;4916210;29;19914;-72
2022/05/23 05:56:02;;;;;;;;;;;;;;;;;;4916296;29;20451;-72
2022/05/23 05:58:27;;;;;;;;;;;;;;;;;;4915848;29;20016;-73
2022/05/23 06:00:55;;;;;;;;;;;;;;;;;;4916637;29;20401;-73
2022/05/23 06:03:23;;;;;;;;;;;;;;;;;;4917743;29;19914;-73
2022/05/23 06:11:32;;;;;;;;;;;;;;;;;;4934644;29;19915;-73
2022/05/23 06:14:18;;;;;;;;;;;;;;;;;;4934319;29;19918;-75
2022/05/23 06:16:46;;;;;;;;;;;;;;;;;;4934718;29;19915;-72
2022/05/23 06:19:17;;;;;;;;;;;;;;;;;;4917419;29;20407;-73
2022/05/23 06:22:12;;;;;;;;;;;;;;;;;;4921540;29;20012;-73
2022/05/23 06:24:46;;;;;;;;;;;;;;;;;;4917143;29;20418;-73
2022/05/23 06:27:11;;;;;;;;;;;;;;;;;;4896105;29;20030;-70
2022/05/23 06:29:56;;;;;;;;;;;;;;;;;;4890036;29;19919;-71
2022/05/23 06:32:54;;;;;;;;;;;;;;;;;;4896578;29;20002;-71
2022/05/23 06:35:42;;;;;;;;;;;;;;;;;;4910012;29;19923;-71
2022/05/23 06:38:08;;;;;;;;;;;;;;;;;;4889518;29;20034;-71
2022/05/23 06:40:57;;;;;;;;;;;;;;;;;;4883156;29;19979;-71
2022/05/23 06:43:41;;;;;;;;;;;;;;;;;;4906996;29;19978;-71
2022/05/23 06:46:25;;;;;;;;;;;;;;;;;;4905441;29;20419;-70
2022/05/23 06:49:10;;;;;;;;;;;;;;;;;;4906388;29;19915;-70
2022/05/23 06:51:52;;;;;;;;;;;;;;;;;;4907508;29;19914;-69
2022/05/23 06:54:21;;;;;;;;;;;;;;;;;;4890932;29;19921;-71
2022/05/23 06:56:58;;;;;;;;;;;;;;;;;;4888116;29;19916;-71
2022/05/23 06:59:24;;;;;;;;;;;;;;;;;;4888306;29;19922;-70
2022/05/23 07:01:49;;;;;;;;;;;;;;;;;;4905476;29;19918;-71
2022/05/23 07:13:34;;;;;;;;;;;;;;;;;;4905259;29;20433;-71
2022/05/23 07:16:00;;;;;;;;;;;;;;;;;;4888085;29;20017;-70
2022/05/23 07:18:27;;;;;;;;;;;;;;;;;;4887566;29;19919;-71
2022/05/23 07:20:56;;;;;;;;;;;;;;;;;;4905549;29;19926;-74
2022/05/23 07:23:27;;;;;;;;;;;;;;;;;;4874547;29;19944;-70
2022/05/23 07:26:03;;;;;;;;;;;;;;;;;;4891346;29;19915;-71
2022/05/23 07:28:50;;;;;;;;;;;;;;;;;;4906155;29;20006;-72
2022/05/23 07:31:19;;;;;;;;;;;;;;;;;;4890346;29;20009;-72
2022/05/23 07:33:44;;;;;;;;;;;;;;;;;;4887403;29;19973;-72
2022/05/23 07:36:16;;;;;;;;;;;;;;;;;;4891694;29;19927;-72
2022/05/23 07:38:44;;;;;;;;;;;;;;;;;;4889712;29;19919;-71
2022/05/23 07:41:14;;;;;;;;;;;;;;;;;;4874571;29;20262;-70
2022/05/23 07:43:41;;;;;;;;;;;;;;;;;;4905374;29;19915;-71
2022/05/23 07:46:09;;;;;;;;;;;;;;;;;;4890331;29;19919;-70
2022/05/23 07:48:37;;;;;;;;;;;;;;;;;;4920645;29;19915;-71
2022/05/23 07:51:03;;;;;;;;;;;;;;;;;;4889157;29;19987;-70
2022/05/23 08:01:48;;;;;;;;;;;;;;;;;;4887437;29;19930;-71
2022/05/23 08:04:13;;;;;;;;;;;;;;;;;;4890411;29;19915;-70
2022/05/23 08:06:43;;;;;;;;;;;;;;;;;;4888418;29;20293;-70
2022/05/23 08:09:10;;;;;;;;;;;;;;;;;;4887293;29;19934;-72
2022/05/23 08:11:40;;;;;;;;;;;;;;;;;;4889205;29;19915;-70
2022/05/23 08:14:10;;;;;;;;;;;;;;;;;;4886294;29;19922;-70
2022/05/23 08:16:47;;;;;;;;;;;;;;;;;;4888374;29;20017;-70
2022/05/23 08:19:15;;;;;;;;;;;;;;;;;;4886080;29;19922;-71
2022/05/23 08:21:41;;;;;;;;;;;;;;;;;;4897807;29;20390;-69
2022/05/23 08:24:07;;;;;;;;;;;;;;;;;;4898150;29;19923;-71
2022/05/23 08:26:34;;;;;;;;;;;;;;;;;;4891227;29;19915;-71
2022/05/23 08:29:00;;;;;;;;;;;;;;;;;;4917056;29;19997;-69
2022/05/23 08:31:31;;;;;;;;;;;;;;;;;;4885688;29;20014;-69
2022/05/23 08:34:03;;;;;;;;;;;;;;;;;;4888408;29;19915;-70
2022/05/23 08:36:29;;;;;;;;;;;;;;;;;;4901881;29;20369;-70
2022/05/23 08:38:55;;;;;;;;;;;;;;;;;;4879474;29;19915;-69
2022/05/23 08:41:47;;;;;;;;;;;;;;;;;;4882515;29;19934;-70
2022/05/23 08:44:33;;;;;;;;;;;;;;;;;;4895728;29;19915;-70
2022/05/23 08:46:59;;;;;;;;;;;;;;;;;;4887499;29;20301;-70
2022/05/23 08:49:25;;;;;;;;;;;;;;;;;;4886279;29;20442;-70
2022/05/23 08:51:51;;;;;;;;;;;;;;;;;;4886794;29;19939;-69
2022/05/23 08:54:20;;;;;;;;;;;;;;;;;;4903891;29;20520;-70
2022/05/23 08:57:04;;;;;;;;;;;;;;;;;;4901716;29;20013;-71
2022/05/23 08:59:33;;;;;;;;;;;;;;;;;;4920415;29;19970;-71
2022/05/23 09:01:58;;;;;;;;;;;;;;;;;;4900689;29;19915;-70
2022/05/23 09:04:24;;;;;;;;;;;;;;;;;;4899408;29;20373;-71
2022/05/23 09:06:50;;;;;;;;;;;;;;;;;;4917574;29;19915;-71
2022/05/23 09:09:15;;;;;;;;;;;;;;;;;;4883338;29;20002;-71
2022/05/23 09:11:41;;;;;;;;;;;;;;;;;;4902249;29;20342;-69
2022/05/23 09:14:06;;;;;;;;;;;;;;;;;;4900291;29;19916;-71
2022/05/23 09:16:32;;;;;;;;;;;;;;;;;;4884682;29;19922;-70
2022/05/23 09:18:58;;;;;;;;;;;;;;;;;;4897981;29;20010;-70
2022/05/23 09:22:12;;;;;;;;;;;;;;;;;;4904494;29;20400;-70
2022/05/23 09:24:12;;;;;;;;;;;;;;;;;;4904165;29;19968;-70
2022/05/23 09:26:38;;;;;;;;;;;;;;;;;;4904814;29;20389;-70
2022/05/23 09:29:04;;;;;;;;;;;;;;;;;;4884423;29;20305;-70
2022/05/23 09:31:30;;;;;;;;;;;;;;;;;;4899815;29;19912;-69
2022/05/23 09:33:57;;;;;;;;;;;;;;;;;;4903727;29;20414;-73
2022/05/23 09:36:27;;;;;;;;;;;;;;;;;;4898732;29;19931;-72
2022/05/23 09:38:53;;;;;;;;;;;;;;;;;;4903312;29;19922;-71
2022/05/23 09:47:44;;;;;;;;;;;;;;;;;;4897193;29;20747;-72
2022/05/23 09:47:54;;;;;;;;;;;;;;;;;;4905471;29;19914;-72
2022/05/23 09:49:48;;;;;;;;;;;;;;;;;;4897113;29;19938;-72
2022/05/23 09:52:14;;;;;;;;;;;;;;;;;;4901636;29;19995;-71
2022/05/23 09:54:40;;;;;;;;;;;;;;;;;;4890051;29;20074;-73
2022/05/23 09:57:05;;;;;;;;;;;;;;;;;;4907046;29;19914;-72
2022/05/23 09:59:31;;;;;;;;;;;;;;;;;;4906999;29;19922;-72
2022/05/23 10:01:56;;;;;;;;;;;;;;;;;;4889652;29;19923;-71
2022/05/23 10:04:22;;;;;;;;;;;;;;;;;;4900394;29;19922;-72
2022/05/23 10:06:50;;;;;;;;;;;;;;;;;;4902689;29;19938;-72
2022/05/23 10:09:15;;;;;;;;;;;;;;;;;;4903743;29;19915;-73
2022/05/23 10:12:01;;;;;;;;;;;;;;;;;;4908626;29;19915;-72
2022/05/23 10:14:27;;;;;;;;;;;;;;;;;;4904003;29;19998;-72
2022/05/23 10:16:54;;;;;;;;;;;;;;;;;;4904191;29;19922;-69
2022/05/23 10:19:20;;;;;;;;;;;;;;;;;;4904208;29;19978;-71
2022/05/23 10:21:45;;;;;;;;;;;;;;;;;;4904590;29;19967;-71
2022/05/23 10:24:11;;;;;;;;;;;;;;;;;;4907465;29;19954;-73
2022/05/23 10:26:37;;;;;;;;;;;;;;;;;;4909202;29;19921;-72
2022/05/23 10:29:02;;;;;;;;;;;;;;;;;;4891236;29;19922;-72
2022/05/23 10:31:28;;;;;;;;;;;;;;;;;;4907684;29;19915;-72
2022/05/23 10:33:54;;;;;;;;;;;;;;;;;;4908318;29;19946;-72
2022/05/23 10:36:21;;;;;;;;;;;;;;;;;;4892503;29;19945;-70
2022/05/23 10:44:29;;;;;;;;;;;;;;;;;;4903920;29;19921;-70
2022/05/23 10:46:55;;;;;;;;;;;;;;;;;;4905081;29;20488;-70
2022/05/23 10:49:21;;;;;;;;;;;;;;;;;;4904972;29;20385;-70
2022/05/23 10:51:46;;;;;;;;;;;;;;;;;;4905218;29;20011;-70
2022/05/23 10:54:12;;;;;;;;;;;;;;;;;;4904975;29;19987;-69
2022/05/23 10:56:37;;;;;;;;;;;;;;;;;;4888177;29;19916;-69
2022/05/23 10:59:03;;;;;;;;;;;;;;;;;;4904238;29;20334;-68
2022/05/23 11:01:28;;;;;;;;;;;;;;;;;;4900456;29;19939;-69
2022/05/23 11:03:54;;;;;;;;;;;;;;;;;;4904273;29;19922;-69
2022/05/23 11:06:19;;;;;;;;;;;;;;;;;;4901735;29;20313;-69
2022/05/23 11:08:47;;;;;;;;;;;;;;;;;;4904323;29;20411;-68
2022/05/23 11:11:13;;;;;;;;;;;;;;;;;;4902140;29;20070;-68
2022/05/23 11:13:38;;;;;;;;;;;;;;;;;;4905967;29;20006;-70
2022/05/23 11:16:04;;;;;;;;;;;;;;;;;;4901903;29;19919;-70
2022/05/23 11:18:29;;;;;;;;;;;;;;;;;;4890292;29;19911;-70
2022/05/23 11:20:55;;;;;;;;;;;;;;;;;;4900948;29;19930;-69
2022/05/23 11:23:21;;;;;;;;;;;;;;;;;;4906977;29;19915;-69
2022/05/23 11:25:47;;;;;;;;;;;;;;;;;;4902839;29;20497;-68
2022/05/23 11:33:41;;;;;;;;;;;;;;;;;;4907135;29;20035;-70
2022/05/23 11:36:09;;;;;;;;;;;;;;;;;;4910213;29;20030;-70
2022/05/23 11:38:34;;;;;;;;;;;;;;;;;;4904790;29;19926;-70
2022/05/23 11:41:00;;;;;;;;;;;;;;;;;;4903215;29;19923;-69
2022/05/23 11:43:27;;;;;;;;;;;;;;;;;;4901299;29;20393;-69
2022/05/23 11:46:05;;;;;;;;;;;;;;;;;;4907550;29;20020;-69
2022/05/23 11:48:30;;;;;;;;;;;;;;;;;;4907614;29;19922;-70
2022/05/23 11:50:56;;;;;;;;;;;;;;;;;;4887022;29;19919;-69
2022/05/23 11:53:22;;;;;;;;;;;;;;;;;;4907657;29;19922;-69
2022/05/23 11:55:48;;;;;;;;;;;;;;;;;;4908199;29;19915;-69
2022/05/23 11:58:14;;;;;;;;;;;;;;;;;;4890670;29;19922;-69
2022/05/23 12:00:39;;;;;;;;;;;;;;;;;;4905809;29;19923;-68
2022/05/23 12:03:10;;;;;;;;;;;;;;;;;;4905210;29;19971;-68
2022/05/23 12:05:35;;;;;;;;;;;;;;;;;;4905986;29;19916;-68
2022/05/23 12:08:02;;;;;;;;;;;;;;;;;;4903302;29;19958;-68
2022/05/23 12:10:30;;;;;;;;;;;;;;;;;;4903616;29;20006;-69
2022/05/23 12:12:56;;;;;;;;;;;;;;;;;;4907091;29;19915;-69
2022/05/23 12:15:23;;;;;;;;;;;;;;;;;;4903554;29;20301;-69
2022/05/23 12:17:49;;;;;;;;;;;;;;;;;;4904633;29;19954;-69
2022/05/23 12:20:14;;;;;;;;;;;;;;;;;;4902357;29;20498;-70
2022/05/23 12:22:41;;;;;;;;;;;;;;;;;;4904732;29;19916;-70
2022/05/23 12:25:06;;;;;;;;;;;;;;;;;;4904092;29;19915;-70
2022/05/23 12:27:33;;;;;;;;;;;;;;;;;;4901054;29;20364;-70
2022/05/23 12:29:58;;;;;;;;;;;;;;;;;;4902668;29;20030;-70
2022/05/23 12:32:25;;;;;;;;;;;;;;;;;;4888699;29;19966;-70
2022/05/23 12:34:52;;;;;;;;;;;;;;;;;;4906039;29;19915;-69
2022/05/23 12:37:17;;;;;;;;;;;;;;;;;;4903472;29;19923;-70
2022/05/23 12:39:43;;;;;;;;;;;;;;;;;;4904339;29;19922;-70
2022/05/23 12:42:11;;;;;;;;;;;;;;;;;;4904546;29;19998;-70
2022/05/23 12:44:37;;;;;;;;;;;;;;;;;;4907288;29;19950;-71
2022/05/23 12:47:04;;;;;;;;;;;;;;;;;;4904207;29;19957;-70
2022/05/23 12:49:30;;;;;;;;;;;;;;;;;;4905093;29;19915;-68
2022/05/23 12:51:55;;;;;;;;;;;;;;;;;;4909391;29;19915;-68
2022/05/23 12:54:21;;;;;;;;;;;;;;;;;;4908487;29;20007;-69
2022/05/23 12:56:48;;;;;;;;;;;;;;;;;;4906024;29;19922;-69
2022/05/23 12:59:14;;;;;;;;;;;;;;;;;;4907142;29;19915;-70
2022/05/23 13:01:39;;;;;;;;;;;;;;;;;;4902226;29;19923;-71
2022/05/23 13:04:05;;;;;;;;;;;;;;;;;;4902365;29;20018;-69
2022/05/23 13:06:31;;;;;;;;;;;;;;;;;;4883192;29;19915;-70
2022/05/23 13:08:56;;;;;;;;;;;;;;;;;;4902027;29;20310;-70
2022/05/23 13:11:22;;;;;;;;;;;;;;;;;;4903281;29;19982;-69
2022/05/23 13:13:47;;;;;;;;;;;;;;;;;;4905638;29;19922;-69
2022/05/23 13:16:13;;;;;;;;;;;;;;;;;;4885202;29;19915;-69
2022/05/23 13:24:07;;;;;;;;;;;;;;;;;;4902021;29;20386;-70
2022/05/23 13:26:33;;;;;;;;;;;;;;;;;;4902192;29;19922;-69
2022/05/23 13:28:58;;;;;;;;;;;;;;;;;;4907782;29;19915;-70
2022/05/23 13:31:25;;;;;;;;;;;;;;;;;;4901718;29;19914;-70
2022/05/23 13:33:51;;;;;;;;;;;;;;;;;;4903049;29;19980;-70
2022/05/23 13:36:17;;;;;;;;;;;;;;;;;;4899143;29;19927;-70
2022/05/23 13:38:43;;;;;;;;;;;;;;;;;;4887498;29;20194;-70
2022/05/23 13:41:09;;;;;;;;;;;;;;;;;;4901115;29;20355;-71
2022/05/23 13:43:35;;;;;;;;;;;;;;;;;;4904005;29;19919;-70
2022/05/23 13:46:01;;;;;;;;;;;;;;;;;;4912204;29;19922;-69
2022/05/23 13:48:26;;;;;;;;;;;;;;;;;;4903092;29;19915;-70
2022/05/23 13:50:54;;;;;;;;;;;;;;;;;;4903160;29;19919;-69
2022/05/23 13:53:20;;;;;;;;;;;;;;;;;;4913132;29;20457;-69
2022/05/23 13:55:46;;;;;;;;;;;;;;;;;;4911171;29;20371;-69
2022/05/23 13:58:12;;;;;;;;;;;;;;;;;;4897234;29;19915;-67
2022/05/23 14:00:37;;;;;;;;;;;;;;;;;;4894380;29;20432;-69
2022/05/23 14:03:03;;;;;;;;;;;;;;;;;;4894607;29;19923;-69
2022/05/23 14:05:29;;;;;;;;;;;;;;;;;;4894409;29;19993;-69
2022/05/23 14:07:56;;;;;;;;;;;;;;;;;;4893769;29;19915;-69
2022/05/23 14:10:28;;;;;;;;;;;;;;;;;;4894034;29;19971;-70
2022/05/23 14:12:53;;;;;;;;;;;;;;;;;;4894857;29;19962;-69
2022/05/23 14:15:19;;;;;;;;;;;;;;;;;;4904845;29;20006;-69
2022/05/23 14:17:45;;;;;;;;;;;;;;;;;;4912447;29;19955;-69
2022/05/23 14:20:11;;;;;;;;;;;;;;;;;;4912736;29;19923;-69
2022/05/23 14:22:37;;;;;;;;;;;;;;;;;;4926488;29;19990;-69
2022/05/23 14:25:02;;;;;;;;;;;;;;;;;;4913608;29;20473;-69
2022/05/23 14:27:29;;;;;;;;;;;;;;;;;;4912988;29;20401;-69
2022/05/23 14:29:55;;;;;;;;;;;;;;;;;;4913549;29;20423;-69
2022/05/23 14:32:21;;;;;;;;;;;;;;;;;;4913254;29;19915;-69
2022/05/23 14:34:47;;;;;;;;;;;;;;;;;;4913021;29;19925;-69
2022/05/23 14:37:13;;;;;;;;;;;;;;;;;;4912494;29;19930;-70
2022/05/23 14:39:38;;;;;;;;;;;;;;;;;;4912857;29;19922;-70
2022/05/23 14:42:04;;;;;;;;;;;;;;;;;;4896515;29;20014;-70
2022/05/23 14:44:35;;;;;;;;;;;;;;;;;;4912015;29;20401;-69
2022/05/23 14:47:01;;;;;;;;;;;;;;;;;;4913286;29;19961;-69
2022/05/23 14:49:26;;;;;;;;;;;;;;;;;;4913203;29;20168;-69
2022/05/23 14:51:52;;;;;;;;;;;;;;;;;;4913128;29;19915;-69
2022/05/23 14:57:02;;;;;;;;;;;;;;;;;;4916822;29;19922;-69
2022/05/23 15:02:12;;;;;;;;;;;;;;;;;;4916745;29;19923;-70
2022/05/23 15:04:38;;;;;;;;;;;;;;;;;;4916536;29;20022;-69
2022/05/23 15:07:04;;;;;;;;;;;;;;;;;;4916560;29;20301;-69
2022/05/23 15:09:30;;;;;;;;;;;;;;;;;;4916393;29;19915;-70
2022/05/23 15:11:55;;;;;;;;;;;;;;;;;;4916430;29;19946;-69
2022/05/23 15:14:21;;;;;;;;;;;;;;;;;;4916644;29;20400;-69
2022/05/23 15:16:47;;;;;;;;;;;;;;;;;;4916328;29;19989;-69
2022/05/23 15:19:16;;;;;;;;;;;;;;;;;;4916690;29;19922;-69
2022/05/23 15:21:44;;;;;;;;;;;;;;;;;;4916182;29;19930;-69
2022/05/23 15:24:11;;;;;;;;;;;;;;;;;;4916594;29;19969;-69
2022/05/23 15:26:39;;;;;;;;;;;;;;;;;;4916053;29;20100;-70
2022/05/23 15:29:04;;;;;;;;;;;;;;;;;;4916407;29;20069;-69
2022/05/23 15:31:30;;;;;;;;;;;;;;;;;;4899313;29;19915;-69
2022/05/23 15:33:58;;;;;;;;;;;;;;;;;;4916307;29;19922;-70
2022/05/23 15:36:23;;;;;;;;;;;;;;;;;;4915980;29;20412;-69
2022/05/23 15:38:50;;;;;;;;;;;;;;;;;;4915978;29;19915;-69
2022/05/23 15:41:16;;;;;;;;;;;;;;;;;;4915443;29;19923;-69
2022/05/23 15:43:41;;;;;;;;;;;;;;;;;;4916147;29;19937;-69
2022/05/23 15:46:07;;;;;;;;;;;;;;;;;;4915730;29;20282;-69
2022/05/23 15:48:32;;;;;;;;;;;;;;;;;;4898795;29;20465;-69
2022/05/23 15:50:58;;;;;;;;;;;;;;;;;;4915649;29;19915;-69
2022/05/23 15:53:24;;;;;;;;;;;;;;;;;;4915571;29;19919;-69
2022/05/23 15:55:52;;;;;;;;;;;;;;;;;;4915763;29;19930;-69
2022/05/23 15:58:18;;;;;;;;;;;;;;;;;;4915460;29;19919;-69
2022/05/23 16:00:44;;;;;;;;;;;;;;;;;;4915350;29;19930;-69
2022/05/23 16:03:09;;;;;;;;;;;;;;;;;;4915806;29;19915;-69
2022/05/23 16:05:36;;;;;;;;;;;;;;;;;;4914780;29;19971;-70
2022/05/23 16:08:04;;;;;;;;;;;;;;;;;;4915121;29;19922;-69
2022/05/23 16:10:30;;;;;;;;;;;;;;;;;;4915165;29;20412;-69
2022/05/23 16:12:55;;;;;;;;;;;;;;;;;;4915248;29;19979;-69
2022/05/23 16:15:21;;;;;;;;;;;;;;;;;;4915372;29;20271;-69
2022/05/23 16:17:47;;;;;;;;;;;;;;;;;;4915226;29;19915;-69
2022/05/23 16:20:12;;;;;;;;;;;;;;;;;;4915209;29;20464;-69
2022/05/23 16:22:38;;;;;;;;;;;;;;;;;;4914736;29;19914;-69
2022/05/23 16:25:08;;;;;;;;;;;;;;;;;;4915291;29;19937;-69
2022/05/23 16:27:34;;;;;;;;;;;;;;;;;;4914901;29;20377;-68
2022/05/23 16:30:00;;;;;;;;;;;;;;;;;;4915183;29;19915;-69
2022/05/23 16:37:57;;;;;;;;;;;;;;;;;;4911988;29;19930;-69
2022/05/23 16:40:25;;;;;;;;;;;;;;;;;;4913561;29;19958;-69
2022/05/23 16:42:50;;;;;;;;;;;;;;;;;;4915027;29;19915;-69
2022/05/23 16:45:16;;;;;;;;;;;;;;;;;;4915217;29;19921;-69
2022/05/23 16:47:42;;;;;;;;;;;;;;;;;;4914800;29;19915;-69
2022/05/23 16:50:07;;;;;;;;;;;;;;;;;;4915185;29;19915;-70
2022/05/23 16:52:33;;;;;;;;;;;;;;;;;;4914556;29;19994;-69
2022/05/23 16:54:59;;;;;;;;;;;;;;;;;;4914872;29;19922;-69
2022/05/23 16:57:24;;;;;;;;;;;;;;;;;;4897782;29;20421;-69
2022/05/23 16:59:50;;;;;;;;;;;;;;;;;;4914953;29;20009;-69
2022/05/23 17:02:19;;;;;;;;;;;;;;;;;;4914399;29;19919;-69
2022/05/23 17:04:45;;;;;;;;;;;;;;;;;;4914789;29;20025;-69
2022/05/23 17:07:10;;;;;;;;;;;;;;;;;;4897756;29;20009;-69
2022/05/23 17:09:36;;;;;;;;;;;;;;;;;;4914380;29;19915;-69
2022/05/23 17:12:03;;;;;;;;;;;;;;;;;;4914417;29;20058;-69
2022/05/23 17:14:29;;;;;;;;;;;;;;;;;;4914616;29;19911;-69
2022/05/23 17:16:55;;;;;;;;;;;;;;;;;;4914483;29;20416;-69
2022/05/23 17:19:21;;;;;;;;;;;;;;;;;;4913565;29;19922;-69
2022/05/23 17:21:47;;;;;;;;;;;;;;;;;;4895203;29;19930;-69
2022/05/23 17:24:12;;;;;;;;;;;;;;;;;;4913949;29;19915;-69
2022/05/23 17:26:40;;;;;;;;;;;;;;;;;;4908440;29;20278;-69
2022/05/23 17:29:05;;;;;;;;;;;;;;;;;;4914615;29;19921;-69
2022/05/23 17:31:31;;;;;;;;;;;;;;;;;;4913963;29;20013;-69
2022/05/23 17:33:56;;;;;;;;;;;;;;;;;;4914515;29;20366;-69
2022/05/23 17:36:22;;;;;;;;;;;;;;;;;;4913785;29;19923;-69
2022/05/23 17:38:48;;;;;;;;;;;;;;;;;;4914234;29;19915;-69
2022/05/23 17:41:13;;;;;;;;;;;;;;;;;;4914384;29;20390;-69
2022/05/23 17:43:39;;;;;;;;;;;;;;;;;;4914311;29;19914;-69
2022/05/23 17:46:05;;;;;;;;;;;;;;;;;;4914481;29;19922;-69
2022/05/23 17:48:31;;;;;;;;;;;;;;;;;;4914231;29;19922;-69
2022/05/23 17:50:57;;;;;;;;;;;;;;;;;;4914017;29;19919;-69
2022/05/23 17:53:22;;;;;;;;;;;;;;;;;;4914022;29;20009;-69
2022/05/23 17:55:48;;;;;;;;;;;;;;;;;;4914155;29;19922;-69
2022/05/23 17:58:15;;;;;;;;;;;;;;;;;;4913990;29;19919;-69
2022/05/23 18:00:41;;;;;;;;;;;;;;;;;;4913018;29;20390;-69
2022/05/23 18:03:07;;;;;;;;;;;;;;;;;;4913888;29;19922;-69
2022/05/23 18:05:33;;;;;;;;;;;;;;;;;;4913749;29;19919;-69